createdAt,value
2024-01-08T00:02:16.119Z,54.12
2024-01-08T00:04:44.175Z,54.07
2024-01-08T00:07:12.029Z,53.77
2024-01-08T00:09:39.841Z,53.88
2024-01-08T00:12:07.958Z,54.01
2024-01-08T00:14:35.876Z,53.96
2024-01-08T00:17:04.118Z,54.10
2024-01-08T00:19:33.038Z,53.94
2024-01-08T00:22:00.938Z,53.93
2024-01-08T00:24:29.233Z,53.97
2024-01-08T00:26:57.096Z,53.82
2024-01-08T00:29:25.024Z,54.39
2024-01-08T00:31:53.018Z,53.95
2024-01-08T00:34:21.886Z,53.30
2024-01-08T00:36:50.210Z,53.40
2024-01-08T00:39:18.043Z,53.21
2024-01-08T00:41:46.005Z,53.23
2024-01-08T00:44:13.900Z,53.45
2024-01-08T00:46:41.886Z,53.28
2024-01-08T00:49:09.862Z,53.69
2024-01-08T00:51:37.739Z,53.69
2024-01-08T00:54:05.737Z,53.67
2024-01-08T00:56:33.637Z,53.85
2024-01-08T00:59:01.604Z,53.98
2024-01-08T01:01:29.589Z,53.68
2024-01-08T01:03:57.628Z,53.90
2024-01-08T01:06:25.688Z,53.76
2024-01-08T01:08:53.783Z,53.00
2024-01-08T01:11:21.662Z,53.48
2024-01-08T01:13:49.658Z,53.05
2024-01-08T01:16:17.818Z,53.14
2024-01-08T01:18:46.243Z,53.37
2024-01-08T01:21:22.198Z,53.43
2024-01-08T01:23:51.609Z,53.82
2024-01-08T01:26:21.685Z,54.03
2024-01-08T01:28:50.690Z,54.43
2024-01-08T01:31:18.598Z,54.03
2024-01-08T01:33:46.595Z,53.92
2024-01-08T01:36:14.556Z,53.64
2024-01-08T01:38:42.355Z,53.91
2024-01-08T01:41:10.199Z,53.61
2024-01-08T01:43:38.055Z,53.60
2024-01-08T01:46:09.328Z,53.84
2024-01-08T01:48:37.255Z,54.08
2024-01-08T01:51:05.455Z,54.13
2024-01-08T01:53:33.707Z,54.02
2024-01-08T01:56:02.160Z,53.69
2024-01-08T01:58:31.016Z,53.58
2024-01-08T02:00:59.128Z,53.58
2024-01-08T02:03:27.796Z,53.60
2024-01-08T02:05:56.231Z,54.00
2024-01-08T02:08:24.588Z,54.04
2024-01-08T02:10:53.096Z,53.98
2024-01-08T02:13:20.949Z,54.08
2024-01-08T02:15:48.888Z,54.05
2024-01-08T02:18:17.001Z,54.28
2024-01-08T02:20:44.979Z,53.88
2024-01-08T02:23:12.981Z,54.37
2024-01-08T02:25:41.362Z,54.46
2024-01-08T02:28:09.362Z,54.21
2024-01-08T02:30:37.198Z,54.35
2024-01-08T02:33:05.350Z,54.29
2024-01-08T02:35:33.570Z,54.69
2024-01-08T02:38:01.536Z,54.84
2024-01-08T02:40:29.539Z,54.68
2024-01-08T02:42:57.613Z,54.62
2024-01-08T02:45:25.502Z,54.50
2024-01-08T02:47:53.559Z,54.60
2024-01-08T02:50:21.563Z,54.54
2024-01-08T02:52:49.494Z,54.49
2024-01-08T02:55:17.456Z,54.47
2024-01-08T02:57:45.378Z,54.40
2024-01-08T03:00:13.757Z,54.46
2024-01-08T03:02:41.884Z,54.07
2024-01-08T03:05:10.277Z,54.10
2024-01-08T03:07:38.298Z,54.25
2024-01-08T03:10:06.588Z,54.58
2024-01-08T03:12:34.604Z,54.49
2024-01-08T03:15:02.391Z,54.70
2024-01-08T03:17:30.483Z,54.99
2024-01-08T03:19:58.693Z,54.74
2024-01-08T03:22:26.627Z,54.72
2024-01-08T03:24:54.498Z,54.62
2024-01-08T03:27:22.325Z,54.60
2024-01-08T03:29:50.206Z,54.82
2024-01-08T03:32:18.107Z,54.83
2024-01-08T03:34:47.522Z,54.63
2024-01-08T03:37:15.512Z,54.32
2024-01-08T03:39:43.350Z,54.53
2024-01-08T03:42:11.242Z,54.91
2024-01-08T03:44:39.325Z,54.34
2024-01-08T03:47:07.223Z,53.79
2024-01-08T03:49:35.136Z,53.64
2024-01-08T03:52:02.986Z,54.23
2024-01-08T03:54:30.846Z,53.92
2024-01-08T03:56:58.623Z,53.95
2024-01-08T03:59:26.409Z,53.95
2024-01-08T04:01:55.231Z,53.72
2024-01-08T04:04:23.070Z,53.18
2024-01-08T04:06:50.900Z,53.35
2024-01-08T04:09:19.151Z,53.52
2024-01-08T04:11:47.245Z,52.96
2024-01-08T04:14:15.387Z,53.10
2024-01-08T04:16:43.454Z,53.04
2024-01-08T04:19:11.365Z,52.66
2024-01-08T04:21:39.542Z,52.72
2024-01-08T04:24:07.451Z,53.15
2024-01-08T04:26:35.346Z,52.93
2024-01-08T04:29:03.540Z,52.65
2024-01-08T04:31:32.538Z,52.77
2024-01-08T04:34:00.853Z,52.81
2024-01-08T04:36:28.879Z,52.47
2024-01-08T04:38:56.714Z,52.33
2024-01-08T04:41:24.774Z,51.65
2024-01-08T04:43:52.738Z,51.46
2024-01-08T04:46:20.624Z,51.36
2024-01-08T04:48:48.556Z,51.71
2024-01-08T04:51:24.283Z,51.77
2024-01-08T04:53:53.364Z,51.37
2024-01-08T04:56:25.746Z,51.49
2024-01-08T04:58:54.544Z,50.97
2024-01-08T05:01:23.381Z,51.64
2024-01-08T05:03:53.161Z,50.87
2024-01-08T05:06:21.202Z,51.00
2024-01-08T05:08:49.628Z,51.52
2024-01-08T05:11:17.605Z,51.06
2024-01-08T05:13:45.640Z,50.75
2024-01-08T05:16:13.612Z,50.97
2024-01-08T05:18:41.573Z,51.19
2024-01-08T05:21:14.606Z,50.72
2024-01-08T05:23:42.507Z,50.92
2024-01-08T05:26:10.760Z,50.41
2024-01-08T05:28:39.354Z,50.67
2024-01-08T05:31:07.335Z,51.13
2024-01-08T05:33:35.213Z,51.11
2024-01-08T05:36:03.654Z,51.58
2024-01-08T05:38:31.510Z,51.62
2024-01-08T05:40:59.440Z,51.66
2024-01-08T05:43:27.275Z,50.92
2024-01-08T05:45:55.445Z,51.03
2024-01-08T05:48:23.405Z,50.68
2024-01-08T05:50:51.351Z,50.79
2024-01-08T05:53:19.342Z,50.98
2024-01-08T05:55:47.237Z,50.87
2024-01-08T05:58:15.167Z,50.63
2024-01-08T06:00:43.091Z,50.37
2024-01-08T06:03:10.929Z,50.42
2024-01-08T06:05:38.913Z,51.23
2024-01-08T06:08:07.940Z,51.57
2024-01-08T06:10:35.860Z,50.46
2024-01-08T06:13:04.191Z,50.75
2024-01-08T06:15:32.001Z,50.61
2024-01-08T06:17:59.766Z,50.98
2024-01-08T06:20:27.705Z,50.59
2024-01-08T06:22:55.586Z,50.88
2024-01-08T06:25:23.596Z,51.31
2024-01-08T06:27:51.459Z,51.71
2024-01-08T06:30:19.760Z,52.04
2024-01-08T06:32:47.767Z,51.67
2024-01-08T06:35:16.050Z,51.83
2024-01-08T06:37:44.120Z,52.32
2024-01-08T06:40:12.597Z,52.40
2024-01-08T06:42:52.482Z,52.35
2024-01-08T06:45:28.216Z,52.63
2024-01-08T06:47:56.333Z,52.63
2024-01-08T06:50:24.624Z,52.59
2024-01-08T06:52:52.772Z,51.92
2024-01-08T06:55:20.670Z,51.70
2024-01-08T06:57:50.438Z,52.09
2024-01-08T07:00:19.444Z,51.99
2024-01-08T07:02:47.762Z,52.24
2024-01-08T07:05:17.120Z,52.13
2024-01-08T07:07:45.630Z,52.38
2024-01-08T07:10:13.716Z,52.07
2024-01-08T07:12:41.584Z,51.63
2024-01-08T07:15:09.510Z,51.85
2024-01-08T07:17:37.419Z,51.10
2024-01-08T07:20:05.940Z,51.31
2024-01-08T07:22:34.360Z,51.90
2024-01-08T07:25:03.372Z,53.79
2024-01-08T07:27:31.209Z,53.08
2024-01-08T07:29:59.286Z,52.15
2024-01-08T07:32:27.410Z,52.54
2024-01-08T07:34:55.394Z,52.72
2024-01-08T07:37:23.364Z,54.22
2024-01-08T07:39:51.524Z,52.72
2024-01-08T07:42:19.291Z,51.92
2024-01-08T07:44:47.189Z,51.90
2024-01-08T07:47:15.233Z,51.38
2024-01-08T07:49:43.069Z,51.49
2024-01-08T07:52:10.959Z,50.94
2024-01-08T07:54:38.748Z,51.21
2024-01-08T07:57:11.159Z,50.93
2024-01-08T07:59:40.527Z,50.76
2024-01-08T08:02:08.578Z,50.74
2024-01-08T08:04:36.490Z,50.57
2024-01-08T08:07:04.986Z,50.10
2024-01-08T08:09:32.882Z,49.90
2024-01-08T08:12:00.707Z,49.97
2024-01-08T08:14:28.554Z,50.70
2024-01-08T08:16:56.673Z,50.65
2024-01-08T08:19:26.381Z,49.69
2024-01-08T08:21:55.652Z,49.23
2024-01-08T08:24:24.506Z,49.91
2024-01-08T08:26:52.392Z,49.82
2024-01-08T08:29:20.333Z,49.61
2024-01-08T08:31:48.220Z,49.90
2024-01-08T08:34:16.492Z,49.84
2024-01-08T08:36:44.439Z,49.90
2024-01-08T08:39:16.235Z,49.84
2024-01-08T08:41:44.830Z,49.73
2024-01-08T08:44:14.942Z,49.82
2024-01-08T08:46:45.651Z,49.95
2024-01-08T08:49:15.093Z,50.19
2024-01-08T08:51:43.114Z,49.82
2024-01-08T08:54:11.040Z,49.68
2024-01-08T08:56:40.564Z,49.83
2024-01-08T08:59:08.466Z,49.83
2024-01-08T09:01:36.570Z,49.39
2024-01-08T09:04:04.695Z,49.71
2024-01-08T09:06:35.464Z,49.30
2024-01-08T09:09:03.497Z,49.37
2024-01-08T09:11:33.341Z,49.10
2024-01-08T09:14:01.258Z,49.56
2024-01-08T09:16:29.216Z,49.39
2024-01-08T09:18:57.855Z,49.54
2024-01-08T09:21:25.981Z,49.67
2024-01-08T09:23:54.234Z,49.26
2024-01-08T09:26:22.198Z,49.08
2024-01-08T09:28:50.533Z,49.23
2024-01-08T09:31:18.940Z,49.20
2024-01-08T09:33:48.414Z,48.90
2024-01-08T09:36:16.446Z,49.00
2024-01-08T09:38:46.628Z,48.99
2024-01-08T09:41:23.159Z,48.54
2024-01-08T09:43:53.770Z,48.34
2024-01-08T09:46:29.963Z,47.75
2024-01-08T09:48:59.160Z,46.90
2024-01-08T09:51:27.097Z,46.02
2024-01-08T09:53:59.610Z,46.45
2024-01-08T09:56:28.486Z,45.90
2024-01-08T09:58:57.551Z,45.96
2024-01-08T10:01:25.500Z,46.51
2024-01-08T10:03:53.952Z,46.37
2024-01-08T10:06:22.323Z,46.30
2024-01-08T10:08:50.567Z,46.06
2024-01-08T10:11:19.348Z,45.67
2024-01-08T10:13:47.419Z,46.08
2024-01-08T10:16:16.325Z,46.63
2024-01-08T10:18:48.146Z,46.72
2024-01-08T10:21:17.260Z,46.04
2024-01-08T10:23:47.763Z,45.61
2024-01-08T10:26:17.861Z,45.32
2024-01-08T10:28:47.862Z,44.82
2024-01-08T10:31:15.738Z,44.72
2024-01-08T10:33:45.625Z,44.44
2024-01-08T10:36:13.695Z,43.27
2024-01-08T10:38:41.811Z,43.29
2024-01-08T10:41:10.525Z,42.44
2024-01-08T10:43:38.329Z,42.28
2024-01-08T10:46:07.904Z,42.80
2024-01-08T10:48:44.772Z,41.71
2024-01-08T10:51:16.481Z,40.87
2024-01-08T10:53:45.943Z,41.05
2024-01-08T10:56:18.282Z,40.90
2024-01-08T10:58:51.213Z,40.77
2024-01-08T11:01:19.436Z,40.13
2024-01-08T11:03:47.821Z,39.91
2024-01-08T11:06:16.881Z,39.92
2024-01-08T11:08:46.111Z,40.05
2024-01-08T11:11:16.538Z,39.25
2024-01-08T11:13:45.362Z,38.96
2024-01-08T11:16:15.017Z,39.24
2024-01-08T11:18:43.011Z,39.00
2024-01-08T11:21:13.651Z,39.35
2024-01-08T11:23:43.707Z,38.85
2024-01-08T11:26:15.945Z,38.69
2024-01-08T11:28:43.851Z,38.26
2024-01-08T11:31:25.943Z,38.44
2024-01-08T11:34:15.523Z,37.99
2024-01-08T11:36:50.614Z,37.80
2024-01-08T11:39:19.979Z,37.02
2024-01-08T11:41:48.372Z,37.19
2024-01-08T11:44:16.440Z,37.46
2024-01-08T11:46:45.724Z,37.36
2024-01-08T11:49:13.792Z,37.18
2024-01-08T11:51:43.316Z,37.50
2024-01-08T11:54:14.934Z,37.60
2024-01-08T11:56:43.316Z,37.41
2024-01-08T11:59:11.525Z,37.12
2024-01-08T12:01:39.678Z,37.23
2024-01-08T12:04:08.004Z,37.43
2024-01-08T12:06:36.148Z,37.06
2024-01-08T12:09:04.336Z,36.86
2024-01-08T12:11:32.225Z,36.79
2024-01-08T12:14:00.195Z,36.54
2024-01-08T12:16:28.870Z,35.74
2024-01-08T12:18:56.881Z,35.53
2024-01-08T12:21:28.290Z,36.53
2024-01-08T12:23:58.576Z,36.29
2024-01-08T12:26:28.354Z,36.14
2024-01-08T12:28:56.546Z,36.40
2024-01-08T12:31:27.634Z,36.27
2024-01-08T12:33:58.337Z,36.09
2024-01-08T12:36:26.323Z,36.18
2024-01-08T12:38:54.181Z,35.54
2024-01-08T12:41:22.068Z,35.36
2024-01-08T12:43:49.963Z,35.47
2024-01-08T12:46:17.861Z,35.35
2024-01-08T12:48:46.023Z,35.46
2024-01-08T12:51:14.029Z,35.50
2024-01-08T12:53:42.014Z,35.44
2024-01-08T12:56:10.616Z,35.51
2024-01-08T12:58:38.604Z,35.45
2024-01-08T13:01:06.485Z,35.47
2024-01-08T13:03:34.901Z,35.36
2024-01-08T13:06:02.849Z,35.20
2024-01-08T13:08:31.937Z,35.00
2024-01-08T13:10:59.923Z,35.32
2024-01-08T13:13:27.984Z,35.25
2024-01-08T13:15:55.809Z,35.37
2024-01-08T13:18:24.328Z,35.25
2024-01-08T13:20:52.298Z,35.16
2024-01-08T13:23:20.210Z,35.01
2024-01-08T13:25:48.215Z,35.43
2024-01-08T13:28:16.060Z,35.20
2024-01-08T13:30:44.269Z,35.27
2024-01-08T13:33:12.407Z,35.51
2024-01-08T13:35:40.328Z,37.97
2024-01-08T13:38:08.300Z,36.70
2024-01-08T13:40:36.140Z,38.38
2024-01-08T13:43:05.100Z,36.89
2024-01-08T13:45:32.946Z,35.77
2024-01-08T13:48:01.077Z,35.41
2024-01-08T13:50:31.875Z,34.61
2024-01-08T13:52:59.894Z,34.92
2024-01-08T13:55:27.708Z,34.83
2024-01-08T13:57:56.044Z,35.29
2024-01-08T14:00:23.977Z,35.28
2024-01-08T14:02:54.070Z,35.26
2024-01-08T14:05:22.338Z,35.11
2024-01-08T14:07:50.342Z,34.94
2024-01-08T14:10:18.437Z,34.96
2024-01-08T14:12:46.291Z,34.51
2024-01-08T14:15:14.526Z,34.60
2024-01-08T14:17:42.830Z,34.75
2024-01-08T14:20:18.484Z,34.28
2024-01-08T14:22:48.848Z,34.92
2024-01-08T14:25:17.718Z,35.47
2024-01-08T14:27:45.623Z,34.97
2024-01-08T14:30:13.979Z,34.74
2024-01-08T14:32:43.688Z,34.88
2024-01-08T14:35:12.219Z,35.17
2024-01-08T14:37:44.058Z,35.69
2024-01-08T14:40:12.508Z,36.22
2024-01-08T14:42:40.497Z,36.98
2024-01-08T14:45:09.066Z,37.51
2024-01-08T14:47:36.930Z,37.54
2024-01-08T14:50:07.460Z,37.96
2024-01-08T14:52:35.461Z,38.32
2024-01-08T14:55:03.546Z,38.88
2024-01-08T14:57:32.674Z,39.33
2024-01-08T15:00:01.315Z,40.13
2024-01-08T15:02:32.235Z,40.21
2024-01-08T15:05:00.159Z,40.69
2024-01-08T15:07:28.419Z,41.42
2024-01-08T15:09:58.819Z,41.33
2024-01-08T15:12:26.631Z,41.66
2024-01-08T15:14:54.483Z,42.09
2024-01-08T15:17:22.896Z,42.65
2024-01-08T15:19:51.047Z,43.07
2024-01-08T15:22:18.976Z,43.27
2024-01-08T15:24:46.983Z,43.59
2024-01-08T15:27:14.893Z,43.76
2024-01-08T15:29:42.820Z,44.10
2024-01-08T15:32:10.780Z,44.00
2024-01-08T15:34:39.325Z,44.37
2024-01-08T15:37:07.205Z,44.72
2024-01-08T15:39:35.154Z,44.68
2024-01-08T15:42:03.090Z,44.42
2024-01-08T15:44:31.051Z,44.41
2024-01-08T15:46:59.790Z,44.46
2024-01-08T15:49:27.924Z,44.16
2024-01-08T15:51:55.873Z,44.27
2024-01-08T15:54:24.983Z,44.39
2024-01-08T15:56:53.085Z,44.24
2024-01-08T15:59:21.249Z,44.47
2024-01-08T16:01:49.159Z,44.75
2024-01-08T16:04:17.278Z,44.75
2024-01-08T16:06:48.272Z,44.47
2024-01-08T16:09:18.208Z,44.72
2024-01-08T16:11:46.242Z,44.97
2024-01-08T16:14:14.164Z,44.92
2024-01-08T16:16:42.143Z,44.86
2024-01-08T16:19:10.217Z,45.04
2024-01-08T16:21:38.178Z,44.99
2024-01-08T16:24:12.900Z,45.14
2024-01-08T16:26:43.519Z,44.62
2024-01-08T16:29:12.622Z,44.49
2024-01-08T16:31:41.525Z,44.77
2024-01-08T16:34:09.599Z,45.08
2024-01-08T16:36:39.148Z,45.14
2024-01-08T16:39:10.501Z,45.06
2024-01-08T16:41:38.353Z,45.17
2024-01-08T16:44:06.387Z,45.25
2024-01-08T16:46:34.405Z,45.55
2024-01-08T16:49:03.050Z,45.38
2024-01-08T16:51:30.951Z,46.09
2024-01-08T16:54:03.265Z,45.97
2024-01-08T16:56:33.229Z,46.24
2024-01-08T16:59:01.220Z,46.25
2024-01-08T17:01:34.632Z,46.15
2024-01-08T17:04:04.811Z,46.10
2024-01-08T17:06:32.929Z,46.47
2024-01-08T17:09:04.810Z,46.57
2024-01-08T17:11:32.822Z,46.98
2024-01-08T17:14:00.819Z,46.84
2024-01-08T17:16:28.730Z,46.21
2024-01-08T17:18:57.163Z,46.45
2024-01-08T17:21:25.167Z,46.35
2024-01-08T17:23:52.972Z,46.60
2024-01-08T17:26:21.154Z,46.56
2024-01-08T17:28:49.321Z,46.47
2024-01-08T17:31:17.218Z,46.58
2024-01-08T17:33:45.380Z,46.60
2024-01-08T17:36:13.575Z,46.63
2024-01-08T17:38:41.875Z,46.96
2024-01-08T17:41:10.130Z,47.21
2024-01-08T17:43:38.014Z,47.36
2024-01-08T17:46:06.868Z,47.30
2024-01-08T17:48:34.867Z,47.17
2024-01-08T17:51:03.220Z,47.35
2024-01-08T17:53:31.570Z,47.29
2024-01-08T17:55:59.468Z,46.97
2024-01-08T17:58:29.311Z,47.09
2024-01-08T18:00:57.351Z,47.00
2024-01-08T18:03:25.182Z,47.05
2024-01-08T18:05:53.199Z,47.29
2024-01-08T18:08:21.334Z,47.43
2024-01-08T18:10:50.012Z,47.20
2024-01-08T18:13:17.814Z,47.47
2024-01-08T18:15:46.055Z,47.54
2024-01-08T18:18:16.214Z,47.41
2024-01-08T18:20:46.305Z,47.59
2024-01-08T18:23:14.479Z,47.79
2024-01-08T18:25:42.640Z,47.70
2024-01-08T18:28:10.492Z,48.45
2024-01-08T18:30:38.554Z,48.45
2024-01-08T18:33:06.528Z,48.50
2024-01-08T18:35:34.486Z,48.24
2024-01-08T18:38:02.765Z,48.38
2024-01-08T18:40:31.076Z,48.51
2024-01-08T18:42:59.107Z,48.33
2024-01-08T18:45:26.976Z,48.48
2024-01-08T18:47:54.995Z,48.01
2024-01-08T18:50:22.914Z,48.44
2024-01-08T18:52:53.486Z,48.68
2024-01-08T18:55:21.685Z,48.76
2024-01-08T18:57:50.090Z,48.47
2024-01-08T19:00:18.576Z,48.66
2024-01-08T19:02:46.550Z,48.15
2024-01-08T19:05:18.378Z,48.34
2024-01-08T19:07:48.343Z,48.60
2024-01-08T19:10:16.254Z,48.91
2024-01-08T19:12:46.237Z,48.71
2024-01-08T19:15:17.508Z,49.08
2024-01-08T19:17:45.776Z,49.07
2024-01-08T19:20:13.842Z,49.12
2024-01-08T19:22:41.671Z,49.73
2024-01-08T19:25:09.831Z,49.40
2024-01-08T19:27:37.985Z,49.25
2024-01-08T19:30:06.503Z,49.15
2024-01-08T19:32:34.472Z,49.31
2024-01-08T19:35:02.454Z,49.30
2024-01-08T19:37:30.379Z,49.25
2024-01-08T19:39:58.298Z,49.07
2024-01-08T19:42:26.235Z,49.50
2024-01-08T19:44:54.140Z,49.15
2024-01-08T19:47:22.179Z,48.80
2024-01-08T19:49:50.251Z,48.70
2024-01-08T19:52:18.350Z,49.08
2024-01-08T19:54:48.985Z,49.14
2024-01-08T19:57:17.414Z,49.32
2024-01-08T19:59:45.842Z,49.40
2024-01-08T20:02:13.878Z,49.73
2024-01-08T20:04:41.893Z,49.89
2024-01-08T20:07:09.811Z,49.98
2024-01-08T20:09:37.737Z,50.33
2024-01-08T20:12:06.300Z,50.12
2024-01-08T20:14:34.927Z,50.21
2024-01-08T20:17:02.842Z,49.95
2024-01-08T20:19:30.933Z,49.96
2024-01-08T20:21:58.771Z,49.61
2024-01-08T20:24:26.587Z,49.79
2024-01-08T20:26:54.503Z,49.54
2024-01-08T20:29:22.398Z,49.81
2024-01-08T20:32:04.062Z,49.89
2024-01-08T20:34:32.038Z,50.14
2024-01-08T20:37:00.328Z,50.20
2024-01-08T20:39:28.407Z,50.44
2024-01-08T20:41:56.419Z,50.52
2024-01-08T20:44:24.300Z,50.63
2024-01-08T20:46:52.241Z,50.40
2024-01-08T20:49:27.838Z,50.41
2024-01-08T20:51:56.107Z,50.55
2024-01-08T20:54:24.319Z,50.53
2024-01-08T20:56:52.211Z,50.94
2024-01-08T20:59:20.428Z,50.90
2024-01-08T21:01:48.234Z,50.89
2024-01-08T21:04:16.154Z,51.08
2024-01-08T21:06:43.979Z,50.62
2024-01-08T21:09:11.869Z,50.33
2024-01-08T21:11:39.733Z,50.27
2024-01-08T21:14:07.630Z,50.07
2024-01-08T21:16:36.349Z,50.28
2024-01-08T21:19:06.265Z,50.07
2024-01-08T21:21:34.509Z,50.38
2024-01-08T21:24:02.453Z,50.37
2024-01-08T21:26:30.483Z,49.69
2024-01-08T21:28:58.476Z,49.92
2024-01-08T21:31:26.491Z,50.27
2024-01-08T21:33:54.533Z,50.33
2024-01-08T21:36:22.485Z,50.40
2024-01-08T21:38:50.438Z,50.54
2024-01-08T21:41:18.371Z,50.71
2024-01-08T21:43:46.437Z,50.49
2024-01-08T21:46:14.266Z,50.47
2024-01-08T21:48:45.495Z,50.46
2024-01-08T21:51:13.686Z,50.58
2024-01-08T21:53:41.783Z,50.12
2024-01-08T21:56:09.952Z,49.94
2024-01-08T21:58:37.950Z,50.01
2024-01-08T22:01:05.829Z,49.97
2024-01-08T22:03:33.773Z,49.85
2024-01-08T22:06:01.846Z,49.83
2024-01-08T22:08:29.867Z,49.93
2024-01-08T22:10:57.839Z,49.98
2024-01-08T22:13:25.729Z,49.72
2024-01-08T22:15:53.570Z,49.42
2024-01-08T22:18:21.457Z,49.70
2024-01-08T22:20:49.476Z,49.74
2024-01-08T22:23:17.484Z,49.89
2024-01-08T22:25:45.576Z,50.20
2024-01-08T22:28:13.461Z,50.16
2024-01-08T22:30:41.776Z,50.15
2024-01-08T22:33:09.989Z,50.36
2024-01-08T22:35:38.048Z,50.11
2024-01-08T22:38:05.858Z,50.84
2024-01-08T22:40:33.694Z,50.80
2024-01-08T22:43:01.477Z,50.67
2024-01-08T22:45:29.608Z,50.47
2024-01-08T22:47:57.566Z,50.36
2024-01-08T22:50:25.477Z,50.52
2024-01-08T22:52:53.360Z,50.77
2024-01-08T22:55:22.194Z,50.60
2024-01-08T22:57:50.209Z,50.47
2024-01-08T23:00:18.910Z,50.56
2024-01-08T23:02:46.884Z,50.59
2024-01-08T23:05:15.028Z,50.71
2024-01-08T23:07:43.062Z,51.30
2024-01-08T23:10:10.971Z,50.92
2024-01-08T23:12:38.837Z,51.02
2024-01-08T23:15:07.405Z,51.28
2024-01-08T23:17:35.538Z,50.92
2024-01-08T23:20:03.979Z,50.61
2024-01-08T23:22:32.005Z,50.49
2024-01-08T23:24:59.823Z,50.27
2024-01-08T23:27:27.911Z,50.30
2024-01-08T23:29:56.876Z,50.43
2024-01-08T23:32:25.043Z,51.13
2024-01-08T23:34:52.975Z,50.39
2024-01-08T23:37:20.865Z,49.88
2024-01-08T23:39:49.028Z,49.44
2024-01-08T23:42:16.940Z,50.15
2024-01-08T23:44:44.794Z,50.02
2024-01-08T23:47:12.701Z,49.88
2024-01-08T23:49:40.981Z,49.88
2024-01-08T23:52:08.955Z,49.96
2024-01-08T23:54:36.919Z,50.18
2024-01-08T23:57:05.104Z,50.59
2024-01-08T23:59:32.921Z,50.74
